sensor_id;sensor_type;location;lat;lon;timestamp;P1;durP1;ratioP1;P2;durP2;ratioP2
20036;SDS011;10179;42.640;23.312;2022-10-01T00:02:00;6.10;;;3.05;;
20036;SDS011;10179;42.640;23.312;2022-10-01T00:04:25;4.80;;;2.90;;
20036;SDS011;10179;42.640;23.312;2022-10-01T00:06:51;3.80;;;2.95;;
20036;SDS011;10179;42.640;23.312;2022-10-01T00:09:17;6.68;;;3.15;;
20036;SDS011;10179;42.640;23.312;2022-10-01T00:11:42;5.65;;;3.15;;
20036;SDS011;10179;42.640;23.312;2022-10-01T00:14:09;6.28;;;3.20;;
20036;SDS011;10179;42.640;23.312;2022-10-01T00:16:35;5.20;;;2.95;;
20036;SDS011;10179;42.640;23.312;2022-10-01T00:19:01;5.18;;;2.90;;
20036;SDS011;10179;42.640;23.312;2022-10-01T00:21:28;6.07;;;2.85;;
20036;SDS011;10179;42.640;23.312;2022-10-01T00:24:02;4.47;;;2.55;;
20036;SDS011;10179;42.640;23.312;2022-10-01T00:26:32;3.50;;;2.53;;
20036;SDS011;10179;42.640;23.312;2022-10-01T00:29:00;4.88;;;3.20;;
20036;SDS011;10179;42.640;23.312;2022-10-01T00:31:29;5.00;;;3.30;;
20036;SDS011;10179;42.640;23.312;2022-10-01T00:33:55;11.10;;;3.67;;
20036;SDS011;10179;42.640;23.312;2022-10-01T00:36:26;5.15;;;3.10;;
20036;SDS011;10179;42.640;23.312;2022-10-01T00:38:52;5.05;;;3.63;;
20036;SDS011;10179;42.640;23.312;2022-10-01T00:41:22;9.48;;;3.55;;
20036;SDS011;10179;42.640;23.312;2022-10-01T00:43:50;10.55;;;3.80;;
20036;SDS011;10179;42.640;23.312;2022-10-01T00:46:37;5.22;;;3.42;;
20036;SDS011;10179;42.640;23.312;2022-10-01T00:49:17;5.93;;;3.25;;
20036;SDS011;10179;42.640;23.312;2022-10-01T00:51:47;5.22;;;3.28;;
20036;SDS011;10179;42.640;23.312;2022-10-01T00:54:23;4.10;;;3.08;;
20036;SDS011;10179;42.640;23.312;2022-10-01T00:56:55;5.93;;;2.65;;
20036;SDS011;10179;42.640;23.312;2022-10-01T00:59:22;3.90;;;3.00;;
20036;SDS011;10179;42.640;23.312;2022-10-01T01:01:48;5.22;;;3.58;;
20036;SDS011;10179;42.640;23.312;2022-10-01T01:04:13;9.60;;;3.67;;
20036;SDS011;10179;42.640;23.312;2022-10-01T01:07:00;5.53;;;3.80;;
20036;SDS011;10179;42.640;23.312;2022-10-01T01:09:44;7.53;;;3.58;;
20036;SDS011;10179;42.640;23.312;2022-10-01T01:25:34;6.35;;;3.95;;
20036;SDS011;10179;42.640;23.312;2022-10-01T01:28:20;7.80;;;3.65;;
20036;SDS011;10179;42.640;23.312;2022-10-01T01:33:22;7.57;;;4.28;;
20036;SDS011;10179;42.640;23.312;2022-10-01T01:35:59;6.60;;;3.75;;
20036;SDS011;10179;42.640;23.312;2022-10-01T01:38:35;10.88;;;4.03;;
20036;SDS011;10179;42.640;23.312;2022-10-01T01:41:06;5.35;;;3.58;;
20036;SDS011;10179;42.640;23.312;2022-10-01T01:43:36;8.18;;;4.43;;
20036;SDS011;10179;42.640;23.312;2022-10-01T01:46:06;7.32;;;4.55;;
20036;SDS011;10179;42.640;23.312;2022-10-01T01:48:37;10.43;;;4.30;;
20036;SDS011;10179;42.640;23.312;2022-10-01T01:53:36;6.45;;;4.25;;
20036;SDS011;10179;42.640;23.312;2022-10-01T01:56:04;8.88;;;4.43;;
20036;SDS011;10179;42.640;23.312;2022-10-01T01:58:31;6.40;;;3.90;;
20036;SDS011;10179;42.640;23.312;2022-10-01T02:00:59;9.90;;;3.67;;
20036;SDS011;10179;42.640;23.312;2022-10-01T02:03:26;8.10;;;4.20;;
20036;SDS011;10179;42.640;23.312;2022-10-01T02:05:57;7.88;;;4.25;;
20036;SDS011;10179;42.640;23.312;2022-10-01T02:08:50;6.30;;;3.85;;
20036;SDS011;10179;42.640;23.312;2022-10-01T02:11:34;6.20;;;3.80;;
20036;SDS011;10179;42.640;23.312;2022-10-01T02:14:11;6.05;;;4.20;;
20036;SDS011;10179;42.640;23.312;2022-10-01T02:19:50;5.40;;;3.95;;
20036;SDS011;10179;42.640;23.312;2022-10-01T02:22:18;12.35;;;4.25;;
20036;SDS011;10179;42.640;23.312;2022-10-01T02:24:51;8.30;;;4.05;;
20036;SDS011;10179;42.640;23.312;2022-10-01T02:27:28;8.07;;;4.38;;
20036;SDS011;10179;42.640;23.312;2022-10-01T02:29:57;9.00;;;4.22;;
20036;SDS011;10179;42.640;23.312;2022-10-01T02:32:26;9.52;;;3.65;;
20036;SDS011;10179;42.640;23.312;2022-10-01T02:34:54;5.00;;;3.42;;
20036;SDS011;10179;42.640;23.312;2022-10-01T02:37:22;7.65;;;3.90;;
20036;SDS011;10179;42.640;23.312;2022-10-01T02:39:50;5.53;;;3.53;;
20036;SDS011;10179;42.640;23.312;2022-10-01T02:42:18;5.10;;;3.50;;
20036;SDS011;10179;42.640;23.312;2022-10-01T02:44:47;5.05;;;3.50;;
20036;SDS011;10179;42.640;23.312;2022-10-01T02:50:33;6.78;;;3.95;;
20036;SDS011;10179;42.640;23.312;2022-10-01T02:53:15;8.07;;;3.53;;
20036;SDS011;10179;42.640;23.312;2022-10-01T02:55:58;5.70;;;3.75;;
20036;SDS011;10179;42.640;23.312;2022-10-01T02:58:28;5.90;;;3.92;;
20036;SDS011;10179;42.640;23.312;2022-10-01T03:00:54;4.97;;;3.63;;
20036;SDS011;10179;42.640;23.312;2022-10-01T03:03:20;5.68;;;3.63;;
20036;SDS011;10179;42.640;23.312;2022-10-01T03:05:45;10.27;;;4.07;;
20036;SDS011;10179;42.640;23.312;2022-10-01T03:08:10;6.70;;;4.38;;
20036;SDS011;10179;42.640;23.312;2022-10-01T03:10:37;7.95;;;3.97;;
20036;SDS011;10179;42.640;23.312;2022-10-01T03:13:04;6.30;;;4.38;;
20036;SDS011;10179;42.640;23.312;2022-10-01T03:15:31;4.47;;;3.75;;
20036;SDS011;10179;42.640;23.312;2022-10-01T03:17:58;7.07;;;4.03;;
20036;SDS011;10179;42.640;23.312;2022-10-01T03:20:24;8.90;;;4.05;;
20036;SDS011;10179;42.640;23.312;2022-10-01T03:22:50;5.97;;;4.05;;
20036;SDS011;10179;42.640;23.312;2022-10-01T03:25:17;4.97;;;3.95;;
20036;SDS011;10179;42.640;23.312;2022-10-01T03:27:43;9.82;;;4.05;;
20036;SDS011;10179;42.640;23.312;2022-10-01T03:30:10;5.38;;;3.42;;
20036;SDS011;10179;42.640;23.312;2022-10-01T03:32:36;7.65;;;3.80;;
20036;SDS011;10179;42.640;23.312;2022-10-01T03:35:02;5.45;;;3.67;;
20036;SDS011;10179;42.640;23.312;2022-10-01T03:37:29;7.65;;;4.07;;
20036;SDS011;10179;42.640;23.312;2022-10-01T03:39:54;5.90;;;4.38;;
20036;SDS011;10179;42.640;23.312;2022-10-01T03:42:20;9.40;;;4.43;;
20036;SDS011;10179;42.640;23.312;2022-10-01T03:44:45;7.93;;;4.50;;
20036;SDS011;10179;42.640;23.312;2022-10-01T03:47:11;7.45;;;3.70;;
20036;SDS011;10179;42.640;23.312;2022-10-01T03:49:37;6.38;;;3.92;;
20036;SDS011;10179;42.640;23.312;2022-10-01T03:52:03;7.72;;;4.40;;
20036;SDS011;10179;42.640;23.312;2022-10-01T03:54:30;7.75;;;3.90;;
20036;SDS011;10179;42.640;23.312;2022-10-01T03:56:56;8.30;;;4.65;;
20036;SDS011;10179;42.640;23.312;2022-10-01T03:59:22;7.18;;;3.92;;
20036;SDS011;10179;42.640;23.312;2022-10-01T04:01:51;8.07;;;4.82;;
20036;SDS011;10179;42.640;23.312;2022-10-01T04:04:17;7.63;;;4.45;;
20036;SDS011;10179;42.640;23.312;2022-10-01T04:06:42;6.43;;;4.07;;
20036;SDS011;10179;42.640;23.312;2022-10-01T04:09:07;6.22;;;4.40;;
20036;SDS011;10179;42.640;23.312;2022-10-01T04:11:34;5.85;;;4.18;;
20036;SDS011;10179;42.640;23.312;2022-10-01T04:13:59;8.30;;;4.95;;
20036;SDS011;10179;42.640;23.312;2022-10-01T04:16:25;8.50;;;4.78;;
20036;SDS011;10179;42.640;23.312;2022-10-01T04:18:50;6.05;;;4.10;;
20036;SDS011;10179;42.640;23.312;2022-10-01T04:21:16;7.82;;;4.55;;
20036;SDS011;10179;42.640;23.312;2022-10-01T04:23:41;12.95;;;4.53;;
20036;SDS011;10179;42.640;23.312;2022-10-01T04:26:07;8.30;;;4.28;;
20036;SDS011;10179;42.640;23.312;2022-10-01T04:28:32;8.63;;;4.30;;
20036;SDS011;10179;42.640;23.312;2022-10-01T04:30:58;6.45;;;4.20;;
20036;SDS011;10179;42.640;23.312;2022-10-01T04:33:42;7.18;;;4.20;;
20036;SDS011;10179;42.640;23.312;2022-10-01T04:36:08;6.78;;;4.40;;
20036;SDS011;10179;42.640;23.312;2022-10-01T04:38:33;7.13;;;4.22;;
20036;SDS011;10179;42.640;23.312;2022-10-01T04:40:59;14.32;;;6.63;;
20036;SDS011;10179;42.640;23.312;2022-10-01T04:43:24;9.30;;;5.22;;
20036;SDS011;10179;42.640;23.312;2022-10-01T04:45:50;8.18;;;4.47;;
20036;SDS011;10179;42.640;23.312;2022-10-01T04:48:15;5.95;;;4.25;;
20036;SDS011;10179;42.640;23.312;2022-10-01T04:50:40;11.35;;;5.20;;
20036;SDS011;10179;42.640;23.312;2022-10-01T04:53:06;10.05;;;4.95;;
20036;SDS011;10179;42.640;23.312;2022-10-01T04:55:31;11.38;;;4.82;;
20036;SDS011;10179;42.640;23.312;2022-10-01T04:57:56;9.77;;;5.32;;
20036;SDS011;10179;42.640;23.312;2022-10-01T05:00:22;12.13;;;5.03;;
20036;SDS011;10179;42.640;23.312;2022-10-01T05:02:49;7.88;;;4.95;;
20036;SDS011;10179;42.640;23.312;2022-10-01T05:05:16;6.78;;;3.97;;
20036;SDS011;10179;42.640;23.312;2022-10-01T05:07:42;7.43;;;3.50;;
20036;SDS011;10179;42.640;23.312;2022-10-01T05:10:12;12.13;;;4.78;;
20036;SDS011;10179;42.640;23.312;2022-10-01T05:12:40;8.98;;;4.80;;
20036;SDS011;10179;42.640;23.312;2022-10-01T05:15:06;11.65;;;5.03;;
20036;SDS011;10179;42.640;23.312;2022-10-01T05:17:33;9.18;;;4.38;;
20036;SDS011;10179;42.640;23.312;2022-10-01T05:19:59;10.20;;;4.95;;
20036;SDS011;10179;42.640;23.312;2022-10-01T05:22:25;7.22;;;4.70;;
20036;SDS011;10179;42.640;23.312;2022-10-01T05:24:52;10.00;;;5.32;;
20036;SDS011;10179;42.640;23.312;2022-10-01T05:27:17;10.27;;;6.00;;
20036;SDS011;10179;42.640;23.312;2022-10-01T05:29:44;11.73;;;5.30;;
20036;SDS011;10179;42.640;23.312;2022-10-01T05:32:12;8.57;;;4.32;;
20036;SDS011;10179;42.640;23.312;2022-10-01T05:34:38;7.95;;;4.53;;
20036;SDS011;10179;42.640;23.312;2022-10-01T05:37:04;11.23;;;4.40;;
20036;SDS011;10179;42.640;23.312;2022-10-01T05:39:30;12.98;;;6.25;;
20036;SDS011;10179;42.640;23.312;2022-10-01T05:41:57;11.95;;;5.65;;
20036;SDS011;10179;42.640;23.312;2022-10-01T05:44:23;15.27;;;5.35;;
20036;SDS011;10179;42.640;23.312;2022-10-01T05:46:49;9.75;;;5.28;;
20036;SDS011;10179;42.640;23.312;2022-10-01T05:49:16;14.55;;;5.63;;
20036;SDS011;10179;42.640;23.312;2022-10-01T05:51:42;8.55;;;4.68;;
20036;SDS011;10179;42.640;23.312;2022-10-01T05:54:11;12.07;;;4.95;;
20036;SDS011;10179;42.640;23.312;2022-10-01T05:56:37;10.98;;;7.45;;
20036;SDS011;10179;42.640;23.312;2022-10-01T05:59:03;8.55;;;5.32;;
20036;SDS011;10179;42.640;23.312;2022-10-01T06:01:29;12.07;;;5.25;;
20036;SDS011;10179;42.640;23.312;2022-10-01T06:03:56;11.30;;;4.75;;
20036;SDS011;10179;42.640;23.312;2022-10-01T06:06:22;14.18;;;4.38;;
20036;SDS011;10179;42.640;23.312;2022-10-01T06:08:51;9.30;;;4.57;;
20036;SDS011;10179;42.640;23.312;2022-10-01T06:11:17;16.50;;;5.35;;
20036;SDS011;10179;42.640;23.312;2022-10-01T06:13:43;8.77;;;4.95;;
20036;SDS011;10179;42.640;23.312;2022-10-01T06:16:11;9.63;;;5.03;;
20036;SDS011;10179;42.640;23.312;2022-10-01T06:18:38;18.00;;;5.20;;
20036;SDS011;10179;42.640;23.312;2022-10-01T06:21:04;12.63;;;5.65;;
20036;SDS011;10179;42.640;23.312;2022-10-01T06:23:29;9.38;;;5.28;;
20036;SDS011;10179;42.640;23.312;2022-10-01T06:25:55;10.07;;;5.32;;
20036;SDS011;10179;42.640;23.312;2022-10-01T06:28:23;11.38;;;5.72;;
20036;SDS011;10179;42.640;23.312;2022-10-01T06:30:48;9.13;;;5.50;;
20036;SDS011;10179;42.640;23.312;2022-10-01T06:33:14;11.65;;;5.38;;
20036;SDS011;10179;42.640;23.312;2022-10-01T06:35:41;15.05;;;6.00;;
20036;SDS011;10179;42.640;23.312;2022-10-01T06:38:09;11.57;;;5.75;;
20036;SDS011;10179;42.640;23.312;2022-10-01T06:40:35;9.77;;;5.25;;
20036;SDS011;10179;42.640;23.312;2022-10-01T06:43:01;13.95;;;5.55;;
20036;SDS011;10179;42.640;23.312;2022-10-01T06:45:27;13.35;;;5.43;;
20036;SDS011;10179;42.640;23.312;2022-10-01T06:47:58;13.48;;;5.32;;
20036;SDS011;10179;42.640;23.312;2022-10-01T06:52:52;12.73;;;5.20;;
20036;SDS011;10179;42.640;23.312;2022-10-01T06:55:19;12.00;;;5.30;;
20036;SDS011;10179;42.640;23.312;2022-10-01T06:57:46;11.90;;;5.72;;
20036;SDS011;10179;42.640;23.312;2022-10-01T07:00:14;12.02;;;4.80;;
20036;SDS011;10179;42.640;23.312;2022-10-01T07:02:40;9.52;;;5.15;;
20036;SDS011;10179;42.640;23.312;2022-10-01T07:05:06;8.57;;;3.50;;
20036;SDS011;10179;42.640;23.312;2022-10-01T07:07:35;4.30;;;2.95;;
20036;SDS011;10179;42.640;23.312;2022-10-01T07:10:06;8.70;;;2.83;;
20036;SDS011;10179;42.640;23.312;2022-10-01T07:12:33;5.63;;;2.92;;
20036;SDS011;10179;42.640;23.312;2022-10-01T07:14:59;5.30;;;3.15;;
20036;SDS011;10179;42.640;23.312;2022-10-01T07:17:25;6.18;;;3.65;;
20036;SDS011;10179;42.640;23.312;2022-10-01T07:19:51;9.60;;;4.45;;
20036;SDS011;10179;42.640;23.312;2022-10-01T07:22:16;7.32;;;3.92;;
20036;SDS011;10179;42.640;23.312;2022-10-01T07:24:43;6.63;;;3.63;;
20036;SDS011;10179;42.640;23.312;2022-10-01T07:27:10;8.60;;;3.53;;
20036;SDS011;10179;42.640;23.312;2022-10-01T07:29:37;5.95;;;3.47;;
20036;SDS011;10179;42.640;23.312;2022-10-01T07:32:02;8.15;;;4.30;;
20036;SDS011;10179;42.640;23.312;2022-10-01T07:34:33;8.25;;;3.58;;
20036;SDS011;10179;42.640;23.312;2022-10-01T07:36:59;8.40;;;3.95;;
20036;SDS011;10179;42.640;23.312;2022-10-01T07:39:25;10.00;;;4.13;;
20036;SDS011;10179;42.640;23.312;2022-10-01T07:41:50;6.97;;;4.15;;
20036;SDS011;10179;42.640;23.312;2022-10-01T07:44:17;9.02;;;3.85;;
20036;SDS011;10179;42.640;23.312;2022-10-01T07:46:43;5.93;;;3.92;;
20036;SDS011;10179;42.640;23.312;2022-10-01T07:49:09;8.07;;;4.30;;
20036;SDS011;10179;42.640;23.312;2022-10-01T07:51:34;7.45;;;3.70;;
20036;SDS011;10179;42.640;23.312;2022-10-01T07:54:00;5.40;;;3.65;;
20036;SDS011;10179;42.640;23.312;2022-10-01T07:56:26;9.18;;;4.00;;
20036;SDS011;10179;42.640;23.312;2022-10-01T07:58:55;12.07;;;3.42;;
20036;SDS011;10179;42.640;23.312;2022-10-01T08:01:22;5.85;;;3.42;;
20036;SDS011;10179;42.640;23.312;2022-10-01T08:03:48;14.13;;;4.45;;
20036;SDS011;10179;42.640;23.312;2022-10-01T08:06:18;10.02;;;3.70;;
20036;SDS011;10179;42.640;23.312;2022-10-01T08:08:44;5.70;;;3.65;;
20036;SDS011;10179;42.640;23.312;2022-10-01T08:11:10;9.10;;;3.92;;
20036;SDS011;10179;42.640;23.312;2022-10-01T08:13:39;9.73;;;4.18;;
20036;SDS011;10179;42.640;23.312;2022-10-01T08:16:09;9.85;;;3.83;;
20036;SDS011;10179;42.640;23.312;2022-10-01T08:18:36;13.73;;;3.72;;
20036;SDS011;10179;42.640;23.312;2022-10-01T08:21:02;11.65;;;3.95;;
20036;SDS011;10179;42.640;23.312;2022-10-01T08:23:28;11.40;;;3.78;;
20036;SDS011;10179;42.640;23.312;2022-10-01T08:25:59;8.60;;;3.63;;
20036;SDS011;10179;42.640;23.312;2022-10-01T08:28:25;7.22;;;3.30;;
20036;SDS011;10179;42.640;23.312;2022-10-01T08:30:51;7.93;;;3.65;;
20036;SDS011;10179;42.640;23.312;2022-10-01T08:33:16;5.72;;;3.53;;
20036;SDS011;10179;42.640;23.312;2022-10-01T08:35:42;10.93;;;3.72;;
20036;SDS011;10179;42.640;23.312;2022-10-01T08:38:08;5.97;;;3.60;;
20036;SDS011;10179;42.640;23.312;2022-10-01T08:40:35;8.20;;;3.70;;
20036;SDS011;10179;42.640;23.312;2022-10-01T08:43:15;7.85;;;4.55;;
20036;SDS011;10179;42.640;23.312;2022-10-01T08:45:46;8.43;;;3.90;;
20036;SDS011;10179;42.640;23.312;2022-10-01T08:48:35;15.25;;;4.22;;
20036;SDS011;10179;42.640;23.312;2022-10-01T08:51:07;6.57;;;3.55;;
20036;SDS011;10179;42.640;23.312;2022-10-01T08:53:39;9.00;;;3.95;;
20036;SDS011;10179;42.640;23.312;2022-10-01T08:56:07;9.38;;;4.30;;
20036;SDS011;10179;42.640;23.312;2022-10-01T09:01:19;10.40;;;4.95;;
20036;SDS011;10179;42.640;23.312;2022-10-01T09:03:45;11.80;;;5.10;;
20036;SDS011;10179;42.640;23.312;2022-10-01T09:06:20;8.65;;;4.85;;
20036;SDS011;10179;42.640;23.312;2022-10-01T09:11:23;10.38;;;4.13;;
20036;SDS011;10179;42.640;23.312;2022-10-01T09:25:22;10.43;;;5.00;;
20036;SDS011;10179;42.640;23.312;2022-10-01T09:28:34;15.10;;;5.78;;
20036;SDS011;10179;42.640;23.312;2022-10-01T09:30:40;13.13;;;5.50;;
20036;SDS011;10179;42.640;23.312;2022-10-01T09:33:11;10.93;;;6.18;;
20036;SDS011;10179;42.640;23.312;2022-10-01T09:38:41;6.45;;;4.63;;
20036;SDS011;10179;42.640;23.312;2022-10-01T09:41:10;6.22;;;4.28;;
20036;SDS011;10179;42.640;23.312;2022-10-01T09:43:39;7.32;;;3.47;;
20036;SDS011;10179;42.640;23.312;2022-10-01T09:46:07;7.63;;;2.30;;
20036;SDS011;10179;42.640;23.312;2022-10-01T09:51:13;3.10;;;2.03;;
20036;SDS011;10179;42.640;23.312;2022-10-01T09:56:25;6.53;;;2.08;;
20036;SDS011;10179;42.640;23.312;2022-10-01T09:58:55;7.95;;;1.90;;
20036;SDS011;10179;42.640;23.312;2022-10-01T10:01:29;7.43;;;2.17;;
20036;SDS011;10179;42.640;23.312;2022-10-01T10:04:09;5.95;;;3.42;;
20036;SDS011;10179;42.640;23.312;2022-10-01T10:06:35;4.22;;;2.20;;
20036;SDS011;10179;42.640;23.312;2022-10-01T10:09:02;9.20;;;2.90;;
20036;SDS011;10179;42.640;23.312;2022-10-01T10:11:29;6.35;;;3.33;;
20036;SDS011;10179;42.640;23.312;2022-10-01T10:14:04;9.18;;;4.88;;
20036;SDS011;10179;42.640;23.312;2022-10-01T10:16:30;12.88;;;4.20;;
20036;SDS011;10179;42.640;23.312;2022-10-01T10:19:03;10.10;;;3.50;;
20036;SDS011;10179;42.640;23.312;2022-10-01T10:21:34;8.20;;;3.72;;
20036;SDS011;10179;42.640;23.312;2022-10-01T10:24:01;8.70;;;4.45;;
20036;SDS011;10179;42.640;23.312;2022-10-01T10:26:29;6.95;;;3.65;;
20036;SDS011;10179;42.640;23.312;2022-10-01T10:28:56;11.13;;;3.25;;
20036;SDS011;10179;42.640;23.312;2022-10-01T10:31:23;10.18;;;3.38;;
20036;SDS011;10179;42.640;23.312;2022-10-01T10:33:55;13.38;;;4.30;;
20036;SDS011;10179;42.640;23.312;2022-10-01T10:36:37;7.68;;;4.43;;
20036;SDS011;10179;42.640;23.312;2022-10-01T10:39:03;9.27;;;4.15;;
20036;SDS011;10179;42.640;23.312;2022-10-01T10:41:30;6.05;;;2.90;;
20036;SDS011;10179;42.640;23.312;2022-10-01T10:43:59;4.82;;;2.80;;
20036;SDS011;10179;42.640;23.312;2022-10-01T10:46:31;4.30;;;3.10;;
20036;SDS011;10179;42.640;23.312;2022-10-01T10:51:48;10.95;;;4.72;;
20036;SDS011;10179;42.640;23.312;2022-10-01T10:57:00;6.68;;;4.50;;
20036;SDS011;10179;42.640;23.312;2022-10-01T10:59:32;10.75;;;4.85;;
20036;SDS011;10179;42.640;23.312;2022-10-01T11:01:58;9.93;;;5.10;;
20036;SDS011;10179;42.640;23.312;2022-10-01T11:04:27;10.25;;;4.93;;
20036;SDS011;10179;42.640;23.312;2022-10-01T11:07:00;10.50;;;5.10;;
20036;SDS011;10179;42.640;23.312;2022-10-01T11:09:29;10.88;;;4.95;;
20036;SDS011;10179;42.640;23.312;2022-10-01T11:14:48;9.93;;;4.97;;
20036;SDS011;10179;42.640;23.312;2022-10-01T11:22:48;11.73;;;3.58;;
20036;SDS011;10179;42.640;23.312;2022-10-01T11:31:35;5.90;;;3.53;;
20036;SDS011;10179;42.640;23.312;2022-10-01T11:39:49;9.50;;;3.92;;
20036;SDS011;10179;42.640;23.312;2022-10-01T11:42:20;6.93;;;3.58;;
20036;SDS011;10179;42.640;23.312;2022-10-01T11:45:00;9.73;;;2.38;;
20036;SDS011;10179;42.640;23.312;2022-10-01T11:50:04;7.13;;;2.22;;
20036;SDS011;10179;42.640;23.312;2022-10-01T11:52:41;3.88;;;2.30;;
20036;SDS011;10179;42.640;23.312;2022-10-01T11:55:19;5.22;;;2.45;;
20036;SDS011;10179;42.640;23.312;2022-10-01T11:58:15;10.15;;;3.58;;
20036;SDS011;10179;42.640;23.312;2022-10-01T12:04:16;8.15;;;3.70;;
20036;SDS011;10179;42.640;23.312;2022-10-01T12:06:48;8.27;;;3.90;;
20036;SDS011;10179;42.640;23.312;2022-10-01T12:12:25;12.35;;;3.92;;
20036;SDS011;10179;42.640;23.312;2022-10-01T12:17:54;8.90;;;3.65;;
20036;SDS011;10179;42.640;23.312;2022-10-01T12:20:32;5.82;;;3.10;;
20036;SDS011;10179;42.640;23.312;2022-10-01T12:23:03;10.80;;;3.50;;
20036;SDS011;10179;42.640;23.312;2022-10-01T12:25:42;7.20;;;3.10;;
20036;SDS011;10179;42.640;23.312;2022-10-01T12:28:32;7.05;;;2.60;;
20036;SDS011;10179;42.640;23.312;2022-10-01T12:36:37;10.40;;;3.00;;
20036;SDS011;10179;42.640;23.312;2022-10-01T12:44:57;9.98;;;3.70;;
20036;SDS011;10179;42.640;23.312;2022-10-01T12:47:37;5.28;;;2.70;;
20036;SDS011;10179;42.640;23.312;2022-10-01T12:50:12;4.07;;;2.55;;
20036;SDS011;10179;42.640;23.312;2022-10-01T13:00:57;9.65;;;3.30;;
20036;SDS011;10179;42.640;23.312;2022-10-01T13:03:50;6.53;;;3.22;;
20036;SDS011;10179;42.640;23.312;2022-10-01T13:06:47;7.20;;;3.47;;
20036;SDS011;10179;42.640;23.312;2022-10-01T13:12:14;5.38;;;3.35;;
20036;SDS011;10179;42.640;23.312;2022-10-01T13:14:50;4.82;;;3.03;;
20036;SDS011;10179;42.640;23.312;2022-10-01T13:17:53;7.57;;;3.45;;
20036;SDS011;10179;42.640;23.312;2022-10-01T13:20:26;8.63;;;3.45;;
20036;SDS011;10179;42.640;23.312;2022-10-01T13:23:09;7.50;;;3.72;;
20036;SDS011;10179;42.640;23.312;2022-10-01T13:31:15;7.90;;;3.05;;
20036;SDS011;10179;42.640;23.312;2022-10-01T13:33:54;6.25;;;2.97;;
20036;SDS011;10179;42.640;23.312;2022-10-01T13:36:31;8.27;;;3.33;;
20036;SDS011;10179;42.640;23.312;2022-10-01T13:38:58;5.60;;;3.33;;
20036;SDS011;10179;42.640;23.312;2022-10-01T13:41:27;4.80;;;3.38;;
20036;SDS011;10179;42.640;23.312;2022-10-01T13:44:40;6.55;;;3.33;;
20036;SDS011;10179;42.640;23.312;2022-10-01T13:46:48;5.18;;;3.22;;
20036;SDS011;10179;42.640;23.312;2022-10-01T13:49:21;8.18;;;3.13;;
20036;SDS011;10179;42.640;23.312;2022-10-01T13:51:50;6.03;;;2.90;;
20036;SDS011;10179;42.640;23.312;2022-10-01T13:54:27;6.65;;;2.88;;
20036;SDS011;10179;42.640;23.312;2022-10-01T13:57:07;5.75;;;2.85;;
20036;SDS011;10179;42.640;23.312;2022-10-01T13:59:34;7.78;;;3.47;;
20036;SDS011;10179;42.640;23.312;2022-10-01T14:02:01;6.93;;;4.07;;
20036;SDS011;10179;42.640;23.312;2022-10-01T14:07:02;12.10;;;6.05;;
20036;SDS011;10179;42.640;23.312;2022-10-01T14:09:42;13.80;;;4.70;;
20036;SDS011;10179;42.640;23.312;2022-10-01T14:12:16;14.48;;;6.32;;
20036;SDS011;10179;42.640;23.312;2022-10-01T14:15:14;13.13;;;6.18;;
20036;SDS011;10179;42.640;23.312;2022-10-01T14:18:21;14.75;;;4.93;;
20036;SDS011;10179;42.640;23.312;2022-10-01T14:21:05;10.38;;;4.80;;
20036;SDS011;10179;42.640;23.312;2022-10-01T14:23:43;11.20;;;4.57;;
20036;SDS011;10179;42.640;23.312;2022-10-01T14:37:25;9.60;;;4.72;;
20036;SDS011;10179;42.640;23.312;2022-10-01T14:39:59;12.68;;;5.05;;
20036;SDS011;10179;42.640;23.312;2022-10-01T14:42:26;6.90;;;3.50;;
20036;SDS011;10179;42.640;23.312;2022-10-01T14:44:52;8.80;;;3.83;;
20036;SDS011;10179;42.640;23.312;2022-10-01T14:47:21;7.70;;;3.70;;
20036;SDS011;10179;42.640;23.312;2022-10-01T14:49:48;5.82;;;3.08;;
20036;SDS011;10179;42.640;23.312;2022-10-01T14:52:27;7.75;;;3.42;;
20036;SDS011;10179;42.640;23.312;2022-10-01T14:57:32;6.20;;;2.55;;
20036;SDS011;10179;42.640;23.312;2022-10-01T14:59:58;6.78;;;2.85;;
20036;SDS011;10179;42.640;23.312;2022-10-01T15:02:26;5.30;;;2.58;;
20036;SDS011;10179;42.640;23.312;2022-10-01T15:04:54;5.18;;;2.40;;
20036;SDS011;10179;42.640;23.312;2022-10-01T15:07:21;7.47;;;2.47;;
20036;SDS011;10179;42.640;23.312;2022-10-01T15:09:47;3.92;;;2.30;;
20036;SDS011;10179;42.640;23.312;2022-10-01T15:12:14;5.40;;;2.53;;
20036;SDS011;10179;42.640;23.312;2022-10-01T15:14:41;8.77;;;2.88;;
20036;SDS011;10179;42.640;23.312;2022-10-01T15:17:11;6.22;;;2.90;;
20036;SDS011;10179;42.640;23.312;2022-10-01T15:19:44;7.75;;;3.08;;
20036;SDS011;10179;42.640;23.312;2022-10-01T15:22:13;8.23;;;2.63;;
20036;SDS011;10179;42.640;23.312;2022-10-01T15:24:44;4.55;;;2.70;;
20036;SDS011;10179;42.640;23.312;2022-10-01T15:27:12;7.15;;;3.00;;
20036;SDS011;10179;42.640;23.312;2022-10-01T15:29:39;9.93;;;2.78;;
20036;SDS011;10179;42.640;23.312;2022-10-01T15:32:06;9.48;;;3.00;;
20036;SDS011;10179;42.640;23.312;2022-10-01T15:34:32;29.75;;;12.40;;
20036;SDS011;10179;42.640;23.312;2022-10-01T15:37:01;14.95;;;5.60;;
20036;SDS011;10179;42.640;23.312;2022-10-01T15:42:05;11.10;;;3.90;;
20036;SDS011;10179;42.640;23.312;2022-10-01T15:52:27;6.95;;;4.03;;
20036;SDS011;10179;42.640;23.312;2022-10-01T15:55:15;13.27;;;5.93;;
20036;SDS011;10179;42.640;23.312;2022-10-01T15:57:41;13.50;;;6.32;;
20036;SDS011;10179;42.640;23.312;2022-10-01T16:00:19;16.08;;;5.72;;
20036;SDS011;10179;42.640;23.312;2022-10-01T16:02:50;13.53;;;6.00;;
20036;SDS011;10179;42.640;23.312;2022-10-01T16:05:20;15.35;;;5.68;;
20036;SDS011;10179;42.640;23.312;2022-10-01T16:10:39;12.77;;;5.75;;
20036;SDS011;10179;42.640;23.312;2022-10-01T16:14:13;13.35;;;6.18;;
20036;SDS011;10179;42.640;23.312;2022-10-01T16:16:15;17.02;;;6.95;;
20036;SDS011;10179;42.640;23.312;2022-10-01T16:18:47;14.32;;;6.05;;
20036;SDS011;10179;42.640;23.312;2022-10-01T16:21:18;14.38;;;6.15;;
20036;SDS011;10179;42.640;23.312;2022-10-01T16:23:48;8.35;;;3.95;;
20036;SDS011;10179;42.640;23.312;2022-10-01T16:28:55;9.80;;;4.75;;
20036;SDS011;10179;42.640;23.312;2022-10-01T16:31:23;25.55;;;10.68;;
20036;SDS011;10179;42.640;23.312;2022-10-01T16:33:49;22.20;;;10.23;;
20036;SDS011;10179;42.640;23.312;2022-10-01T16:36:18;25.20;;;10.38;;
20036;SDS011;10179;42.640;23.312;2022-10-01T16:38:45;21.77;;;11.32;;
20036;SDS011;10179;42.640;23.312;2022-10-01T16:41:13;24.55;;;10.85;;
20036;SDS011;10179;42.640;23.312;2022-10-01T16:43:48;20.25;;;9.82;;
20036;SDS011;10179;42.640;23.312;2022-10-01T16:46:15;14.63;;;5.38;;
20036;SDS011;10179;42.640;23.312;2022-10-01T16:48:41;12.82;;;5.97;;
20036;SDS011;10179;42.640;23.312;2022-10-01T16:51:07;15.70;;;8.18;;
20036;SDS011;10179;42.640;23.312;2022-10-01T16:53:32;20.13;;;8.85;;
20036;SDS011;10179;42.640;23.312;2022-10-01T16:55:58;19.27;;;8.18;;
20036;SDS011;10179;42.640;23.312;2022-10-01T16:58:24;14.32;;;7.30;;
20036;SDS011;10179;42.640;23.312;2022-10-01T17:00:49;15.88;;;7.05;;
20036;SDS011;10179;42.640;23.312;2022-10-01T17:03:16;12.43;;;5.95;;
20036;SDS011;10179;42.640;23.312;2022-10-01T17:05:43;13.65;;;6.47;;
20036;SDS011;10179;42.640;23.312;2022-10-01T17:08:10;14.93;;;6.60;;
20036;SDS011;10179;42.640;23.312;2022-10-01T17:10:52;13.05;;;6.10;;
20036;SDS011;10179;42.640;23.312;2022-10-01T17:13:22;13.07;;;5.95;;
20036;SDS011;10179;42.640;23.312;2022-10-01T17:15:49;14.73;;;5.78;;
20036;SDS011;10179;42.640;23.312;2022-10-01T17:18:15;11.10;;;5.25;;